createdAt,value
2019-03-25T00:02:34.099Z,17.06
2019-03-25T00:05:36.395Z,17.00
2019-03-25T00:08:38.708Z,17.00
2019-03-25T00:11:42.136Z,16.94
2019-03-25T00:14:44.406Z,16.94
2019-03-25T00:17:46.778Z,16.94
2019-03-25T00:20:49.155Z,16.87
2019-03-25T00:23:51.465Z,16.81
2019-03-25T00:26:53.733Z,16.81
2019-03-25T00:29:56.024Z,16.81
2019-03-25T00:32:58.405Z,16.75
2019-03-25T00:36:00.751Z,16.75
2019-03-25T00:39:03.236Z,16.69
2019-03-25T00:42:06.844Z,16.69
2019-03-25T00:45:09.272Z,16.62
2019-03-25T00:48:11.653Z,16.62
2019-03-25T00:51:13.999Z,16.56
2019-03-25T00:54:16.409Z,16.56
2019-03-25T00:57:19.009Z,16.56
2019-03-25T01:00:21.436Z,16.50
2019-03-25T01:03:23.731Z,16.50
2019-03-25T01:06:26.135Z,16.44
2019-03-25T01:09:28.564Z,16.44
2019-03-25T01:12:30.868Z,16.37
2019-03-25T01:15:33.241Z,16.37
2019-03-25T01:18:36.577Z,16.37
2019-03-25T01:21:38.918Z,16.31
2019-03-25T01:24:41.219Z,16.31
2019-03-25T01:27:45.002Z,16.25
2019-03-25T01:30:47.262Z,16.25
2019-03-25T01:33:49.505Z,16.25
2019-03-25T01:36:51.753Z,16.19
2019-03-25T01:39:54.072Z,16.19
2019-03-25T01:42:56.489Z,16.12
2019-03-25T01:45:58.772Z,16.12
2019-03-25T01:49:01.086Z,16.06
2019-03-25T01:52:03.361Z,16.06
2019-03-25T01:55:13.450Z,16.06
2019-03-25T01:58:09.888Z,16.00
2019-03-25T02:01:12.169Z,16.00
2019-03-25T02:04:16.439Z,15.94
2019-03-25T02:07:18.425Z,15.94
2019-03-25T02:10:20.886Z,15.88
2019-03-25T02:13:23.189Z,15.88
2019-03-25T02:16:25.524Z,15.81
2019-03-25T02:19:27.792Z,15.81
2019-03-25T02:22:30.195Z,15.81
2019-03-25T02:25:32.431Z,15.75
2019-03-25T02:28:34.780Z,15.75
2019-03-25T02:31:37.038Z,15.75
2019-03-25T02:34:39.295Z,15.69
2019-03-25T02:37:41.596Z,15.69
2019-03-25T02:40:43.880Z,15.63
2019-03-25T02:43:46.139Z,15.63
2019-03-25T02:46:48.413Z,15.56
2019-03-25T02:49:50.689Z,15.56
2019-03-25T02:52:52.949Z,15.50
2019-03-25T02:55:55.204Z,15.50
2019-03-25T02:58:57.492Z,15.44
2019-03-25T03:01:59.817Z,15.44
2019-03-25T03:05:02.101Z,15.38
2019-03-25T03:08:05.687Z,15.38
2019-03-25T03:11:08.046Z,15.31
2019-03-25T03:14:10.400Z,15.31
2019-03-25T03:17:12.737Z,15.31
2019-03-25T03:20:15.032Z,15.25
2019-03-25T03:23:17.329Z,15.19
2019-03-25T03:26:19.602Z,15.19
2019-03-25T03:29:21.867Z,15.13
2019-03-25T03:32:24.339Z,15.06
2019-03-25T03:35:26.607Z,15.06
2019-03-25T03:38:28.938Z,15.00
2019-03-25T03:41:31.269Z,15.00
2019-03-25T03:44:33.526Z,14.94
2019-03-25T03:47:35.784Z,14.87
2019-03-25T03:50:38.077Z,14.87
2019-03-25T03:53:40.403Z,14.81
2019-03-25T03:56:43.065Z,14.75
2019-03-25T03:59:45.584Z,14.69
2019-03-25T04:02:47.898Z,14.69
2019-03-25T04:05:50.186Z,14.63
2019-03-25T04:08:52.518Z,14.56
2019-03-25T04:11:54.763Z,14.50
2019-03-25T04:14:57.041Z,14.44
2019-03-25T04:17:59.943Z,14.44
2019-03-25T04:21:02.231Z,14.38
2019-03-25T04:24:04.511Z,14.31
2019-03-25T04:27:06.776Z,14.25
2019-03-25T04:30:09.821Z,14.19
2019-03-25T04:33:12.131Z,14.13
2019-03-25T04:36:14.418Z,14.13
2019-03-25T04:39:16.677Z,14.06
2019-03-25T04:42:18.963Z,14.00
2019-03-25T04:45:21.239Z,14.00
2019-03-25T04:48:23.508Z,13.94
2019-03-25T04:51:25.815Z,13.88
2019-03-25T04:54:28.115Z,13.81
2019-03-25T04:57:30.436Z,13.75
2019-03-25T05:00:37.949Z,13.69
2019-03-25T05:03:40.177Z,13.69
2019-03-25T05:06:42.460Z,13.62
2019-03-25T05:09:44.737Z,13.56
2019-03-25T05:12:46.988Z,13.50
2019-03-25T05:15:49.295Z,13.50
2019-03-25T05:18:51.613Z,13.44
2019-03-25T05:21:53.887Z,13.38
2019-03-25T05:24:56.153Z,13.38
2019-03-25T05:27:59.173Z,13.31
2019-03-25T05:31:01.467Z,13.31
2019-03-25T05:34:03.726Z,13.25
2019-03-25T05:37:06.063Z,13.25
2019-03-25T05:40:08.418Z,13.19
2019-03-25T05:43:10.737Z,13.19
2019-03-25T05:46:13.012Z,13.19
2019-03-25T05:49:17.592Z,13.13
2019-03-25T05:52:19.891Z,13.13
2019-03-25T05:55:22.198Z,13.13
2019-03-25T05:58:24.477Z,13.13
2019-03-25T06:01:27.037Z,13.13
2019-03-25T06:04:29.305Z,13.13
2019-03-25T06:07:31.608Z,13.13
2019-03-25T06:10:33.927Z,13.13
2019-03-25T06:13:36.187Z,13.13
2019-03-25T06:16:38.430Z,13.13
2019-03-25T06:19:40.744Z,13.13
2019-03-25T06:22:43.002Z,13.19
2019-03-25T06:25:45.259Z,13.25
2019-03-25T06:28:47.515Z,13.31
2019-03-25T06:31:49.772Z,13.31
2019-03-25T06:34:52.055Z,13.25
2019-03-25T06:37:54.307Z,13.25
2019-03-25T06:40:56.570Z,13.31
2019-03-25T06:43:58.840Z,13.31
2019-03-25T06:47:01.145Z,13.31
2019-03-25T06:50:03.409Z,13.31
2019-03-25T06:53:05.730Z,13.38
2019-03-25T06:56:08.014Z,13.44
2019-03-25T06:59:10.327Z,13.56
2019-03-25T07:02:12.714Z,13.56
2019-03-25T07:05:15.065Z,13.62
2019-03-25T07:08:17.322Z,13.69
2019-03-25T07:11:19.715Z,13.69
2019-03-25T07:14:22.192Z,13.62
2019-03-25T07:17:24.451Z,13.62
2019-03-25T07:20:26.755Z,13.81
2019-03-25T07:23:29.006Z,13.94
2019-03-25T07:26:31.252Z,14.06
2019-03-25T07:29:33.516Z,14.13
2019-03-25T07:32:35.842Z,14.25
2019-03-25T07:35:38.119Z,14.31
2019-03-25T07:38:40.349Z,14.31
2019-03-25T07:41:42.621Z,14.31
2019-03-25T07:44:48.121Z,14.31
2019-03-25T07:47:50.390Z,14.38
2019-03-25T07:50:52.754Z,14.63
2019-03-25T07:53:55.024Z,14.87
2019-03-25T07:56:57.349Z,15.13
2019-03-25T07:59:59.643Z,15.13
2019-03-25T08:03:01.972Z,15.19
2019-03-25T08:06:04.288Z,15.31
2019-03-25T08:09:09.468Z,15.63
2019-03-25T08:12:11.752Z,15.94
2019-03-25T08:15:14.022Z,16.12
2019-03-25T08:18:16.301Z,16.25
2019-03-25T08:21:18.957Z,16.37
2019-03-25T08:24:21.214Z,16.44
2019-03-25T08:27:23.516Z,16.50
2019-03-25T08:30:25.785Z,16.44
2019-03-25T08:33:28.069Z,16.37
2019-03-25T08:36:30.340Z,16.25
2019-03-25T08:39:32.613Z,16.19
2019-03-25T08:42:34.903Z,16.06
2019-03-25T08:45:37.182Z,15.94
2019-03-25T08:48:39.465Z,15.88
2019-03-25T08:51:41.812Z,15.75
2019-03-25T08:54:44.055Z,15.81
2019-03-25T08:57:46.352Z,15.81
2019-03-25T09:00:48.641Z,15.75
2019-03-25T09:03:50.994Z,15.88
2019-03-25T09:06:53.267Z,15.81
2019-03-25T09:09:55.526Z,15.69
2019-03-25T09:12:57.825Z,15.63
2019-03-25T09:16:00.071Z,15.75
2019-03-25T09:19:02.337Z,15.94
2019-03-25T09:22:04.682Z,16.06
2019-03-25T09:25:07.567Z,16.25
2019-03-25T09:28:09.861Z,16.44
2019-03-25T09:31:17.297Z,16.62
2019-03-25T09:34:24.705Z,16.81
2019-03-25T09:37:25.502Z,17.00
2019-03-25T09:40:27.755Z,17.19
2019-03-25T09:43:30.030Z,17.44
2019-03-25T09:46:32.357Z,17.62
2019-03-25T09:49:34.767Z,17.87
2019-03-25T09:52:38.751Z,18.06
2019-03-25T09:55:44.121Z,18.31
2019-03-25T09:58:56.618Z,18.50
2019-03-25T10:01:58.922Z,18.75
2019-03-25T10:05:01.330Z,19.06
2019-03-25T10:08:03.672Z,19.37
2019-03-25T10:11:06.111Z,19.50
2019-03-25T10:14:08.409Z,19.69
2019-03-25T10:17:13.417Z,19.87
2019-03-25T10:38:25.152Z,20.12
2019-03-25T10:41:27.426Z,20.37
2019-03-25T10:44:29.725Z,20.56
2019-03-25T10:47:32.023Z,21.12
2019-03-25T10:50:34.283Z,21.50
2019-03-25T10:53:36.627Z,21.62
2019-03-25T10:56:41.869Z,21.69
2019-03-25T10:59:42.928Z,21.87
2019-03-25T11:02:45.239Z,22.13
2019-03-25T11:05:47.610Z,21.94
2019-03-25T11:08:51.758Z,22.19
2019-03-25T11:11:54.048Z,22.69
2019-03-25T11:14:56.305Z,23.25
2019-03-25T11:17:58.562Z,24.00
2019-03-25T11:21:00.856Z,25.37
2019-03-25T11:24:03.146Z,25.19
2019-03-25T11:27:05.409Z,26.00
2019-03-25T11:30:09.234Z,26.25
2019-03-25T11:33:11.566Z,26.31
2019-03-25T11:36:13.879Z,26.44
2019-03-25T11:39:16.220Z,25.37
2019-03-25T11:42:18.461Z,23.87
2019-03-25T11:45:20.871Z,23.81
2019-03-25T11:48:23.118Z,25.44
2019-03-25T11:51:25.366Z,24.12
2019-03-25T11:54:27.672Z,23.25
2019-03-25T11:57:29.969Z,23.87
2019-03-25T12:00:32.306Z,25.56
2019-03-25T12:03:34.529Z,26.37
2019-03-25T12:06:36.802Z,25.19
2019-03-25T12:09:39.095Z,24.50
2019-03-25T12:12:41.353Z,24.00
2019-03-25T12:15:43.607Z,23.19
2019-03-25T12:18:46.845Z,22.81
2019-03-25T12:21:49.147Z,23.00
2019-03-25T12:24:51.398Z,23.44
2019-03-25T12:27:53.733Z,23.81
2019-03-25T12:30:56.013Z,25.06
2019-03-25T12:33:58.263Z,25.81
2019-03-25T12:37:00.596Z,25.25
2019-03-25T12:40:02.861Z,24.63
2019-03-25T12:43:05.150Z,24.06
2019-03-25T12:46:07.440Z,23.56
2019-03-25T12:49:09.733Z,23.19
2019-03-25T12:52:12.084Z,23.00
2019-03-25T12:55:14.445Z,22.94
2019-03-25T12:58:16.715Z,23.06
2019-03-25T13:01:19.020Z,24.00
2019-03-25T13:04:21.352Z,25.06
2019-03-25T13:07:23.652Z,25.06
2019-03-25T13:10:25.907Z,25.81
2019-03-25T13:13:29.220Z,25.56
2019-03-25T13:16:31.456Z,24.81
2019-03-25T13:19:33.724Z,24.25
2019-03-25T13:22:36.041Z,23.81
2019-03-25T13:25:44.481Z,24.00
2019-03-25T13:28:46.878Z,24.44
2019-03-25T13:31:49.145Z,27.13
2019-03-25T13:34:51.478Z,28.62
2019-03-25T13:37:53.758Z,29.56
2019-03-25T13:40:56.000Z,30.06
2019-03-25T13:43:58.303Z,30.56
2019-03-25T13:47:00.582Z,31.06
2019-03-25T13:50:02.914Z,30.88
2019-03-25T13:53:05.195Z,28.44
2019-03-25T13:56:07.438Z,27.44
2019-03-25T13:59:09.673Z,29.44
2019-03-25T14:02:11.924Z,30.06
2019-03-25T14:05:14.308Z,28.94
2019-03-25T14:08:16.646Z,27.87
2019-03-25T14:11:20.109Z,27.62
2019-03-25T14:14:22.467Z,28.44
2019-03-25T14:17:24.870Z,28.00
2019-03-25T14:20:27.127Z,28.06
2019-03-25T14:23:29.399Z,28.44
2019-03-25T14:26:31.707Z,27.31
2019-03-25T14:29:33.991Z,26.44
2019-03-25T14:32:36.307Z,25.88
2019-03-25T14:35:38.608Z,25.44
2019-03-25T14:38:40.927Z,25.06
2019-03-25T14:41:43.253Z,24.81
2019-03-25T14:44:45.517Z,24.63
2019-03-25T14:47:47.795Z,24.44
2019-03-25T14:50:50.053Z,24.44
2019-03-25T14:53:53.400Z,24.94
2019-03-25T14:56:55.649Z,26.87
2019-03-25T14:59:57.912Z,29.12
2019-03-25T15:03:00.165Z,28.81
2019-03-25T15:06:02.447Z,29.75
2019-03-25T15:09:07.040Z,28.06
2019-03-25T15:12:09.346Z,26.56
2019-03-25T15:15:12.021Z,25.94
2019-03-25T15:18:16.107Z,25.37
2019-03-25T15:21:18.599Z,25.00
2019-03-25T15:24:20.867Z,24.81
2019-03-25T15:27:25.915Z,24.69
2019-03-25T15:30:35.845Z,24.50
2019-03-25T15:33:32.181Z,24.31
2019-03-25T15:36:34.476Z,24.19
2019-03-25T15:39:46.261Z,23.94
2019-03-25T15:42:43.914Z,23.69
2019-03-25T15:45:46.188Z,23.56
2019-03-25T15:48:48.601Z,23.62
2019-03-25T15:51:50.943Z,23.56
2019-03-25T15:54:53.167Z,23.50
2019-03-25T15:57:55.453Z,23.31
2019-03-25T16:00:57.698Z,23.19
2019-03-25T16:03:59.984Z,23.19
2019-03-25T16:07:06.105Z,23.00
2019-03-25T16:10:09.264Z,22.94
2019-03-25T16:13:11.613Z,23.00
2019-03-25T16:16:13.908Z,23.06
2019-03-25T16:19:16.252Z,23.00
2019-03-25T16:22:18.516Z,23.00
2019-03-25T16:25:29.182Z,23.06
2019-03-25T16:28:31.451Z,23.56
2019-03-25T16:31:35.737Z,24.94
2019-03-25T16:34:37.992Z,24.69
2019-03-25T16:37:40.255Z,24.00
2019-03-25T16:40:42.554Z,23.62
2019-03-25T16:43:44.859Z,23.38
2019-03-25T16:46:47.159Z,23.12
2019-03-25T16:49:49.433Z,23.00
2019-03-25T16:53:01.075Z,22.81
2019-03-25T16:56:03.505Z,22.69
2019-03-25T16:59:05.971Z,22.56
2019-03-25T17:02:08.279Z,22.50
2019-03-25T17:05:10.734Z,22.37
2019-03-25T17:08:13.186Z,22.13
2019-03-25T17:11:15.485Z,21.94
2019-03-25T17:14:17.892Z,21.81
2019-03-25T17:17:20.224Z,21.69
2019-03-25T17:20:22.671Z,21.50
2019-03-25T17:23:25.092Z,21.37
2019-03-25T17:26:27.490Z,21.25
2019-03-25T17:29:29.764Z,21.19
2019-03-25T17:32:32.048Z,21.06
2019-03-25T17:35:34.378Z,20.94
2019-03-25T17:38:36.623Z,20.88
2019-03-25T17:41:38.909Z,20.81
2019-03-25T17:44:41.157Z,20.69
2019-03-25T17:47:43.456Z,20.62
2019-03-25T17:50:45.842Z,20.56
2019-03-25T17:53:48.113Z,20.44
2019-03-25T17:56:50.362Z,20.37
2019-03-25T17:59:52.625Z,20.31
2019-03-25T18:02:54.913Z,20.25
2019-03-25T18:05:57.271Z,20.12
2019-03-25T18:08:59.569Z,20.06
2019-03-25T18:12:01.923Z,20.00
2019-03-25T18:15:06.075Z,19.94
2019-03-25T18:18:08.271Z,19.81
2019-03-25T18:21:10.597Z,19.75
2019-03-25T18:24:12.940Z,19.69
2019-03-25T18:27:16.340Z,19.62
2019-03-25T18:30:23.473Z,19.56
2019-03-25T18:33:25.751Z,19.44
2019-03-25T18:36:28.086Z,19.37
2019-03-25T18:39:30.394Z,19.31
2019-03-25T18:42:32.688Z,19.25
2019-03-25T18:45:34.939Z,19.19
2019-03-25T18:48:37.275Z,19.12
2019-03-25T18:51:39.574Z,19.06
2019-03-25T19:11:30.743Z,18.75
2019-03-25T19:14:25.280Z,18.69
2019-03-25T19:17:27.567Z,18.62
2019-03-25T19:20:30.919Z,18.62
2019-03-25T19:23:33.291Z,18.56
2019-03-25T19:26:35.570Z,18.50
2019-03-25T19:29:37.868Z,18.50
2019-03-25T19:32:40.204Z,18.44
2019-03-25T19:35:42.552Z,18.44
2019-03-25T19:38:44.809Z,18.37
2019-03-25T19:41:47.077Z,18.37
2019-03-25T19:44:49.389Z,18.31
2019-03-25T19:47:51.707Z,18.25
2019-03-25T19:50:53.918Z,18.25
2019-03-25T19:53:56.172Z,18.19
2019-03-25T20:15:18.110Z,18.00
2019-03-25T20:18:20.344Z,18.00
2019-03-25T20:21:22.647Z,18.00
2019-03-25T20:24:24.993Z,17.94
2019-03-25T20:27:27.297Z,17.94
2019-03-25T20:30:29.715Z,17.81
2019-03-25T20:33:32.021Z,17.50
2019-03-25T20:36:34.443Z,17.31
2019-03-25T20:39:36.656Z,17.19
2019-03-25T20:42:39.025Z,17.06
2019-03-25T20:45:41.362Z,17.00
2019-03-25T20:48:43.765Z,16.87
2019-03-25T20:51:46.054Z,16.81
2019-03-25T20:54:48.428Z,16.75
2019-03-25T20:57:50.762Z,16.62
2019-03-25T21:00:57.725Z,16.56
2019-03-25T21:04:00.093Z,16.50
2019-03-25T21:07:02.533Z,16.44
2019-03-25T21:10:07.920Z,16.37
2019-03-25T21:13:10.218Z,16.31
2019-03-25T21:16:12.453Z,16.25
2019-03-25T21:19:14.742Z,16.12
2019-03-25T21:22:17.064Z,16.06
2019-03-25T21:25:19.391Z,16.06
2019-03-25T21:28:21.651Z,16.00
2019-03-25T21:31:24.010Z,15.94
2019-03-25T21:34:26.328Z,15.88
2019-03-25T21:37:28.831Z,15.81
2019-03-25T21:40:31.660Z,15.75
2019-03-25T21:43:33.955Z,15.69
2019-03-25T21:46:36.214Z,15.63
2019-03-25T21:49:38.493Z,15.56
2019-03-25T21:52:40.755Z,15.56
2019-03-25T21:55:43.085Z,15.50
2019-03-25T21:58:45.382Z,15.44
2019-03-25T22:01:48.943Z,15.38
2019-03-25T22:04:51.284Z,15.31
2019-03-25T22:07:53.569Z,15.25
2019-03-25T22:10:55.867Z,15.25
2019-03-25T22:13:58.220Z,15.19
2019-03-25T22:17:00.484Z,15.19
2019-03-25T22:20:02.807Z,15.13
2019-03-25T22:23:05.103Z,15.06
2019-03-25T22:26:07.468Z,15.00
2019-03-25T22:29:09.817Z,14.94
2019-03-25T22:32:12.162Z,14.94
2019-03-25T22:35:14.483Z,14.87
2019-03-25T22:38:16.740Z,14.81
2019-03-25T22:41:19.008Z,14.81
2019-03-25T22:44:21.251Z,14.75
2019-03-25T22:47:23.552Z,14.69
2019-03-25T22:50:33.296Z,14.69
2019-03-25T22:53:35.577Z,14.63
2019-03-25T22:56:37.902Z,14.56
2019-03-25T22:59:40.174Z,14.50
2019-03-25T23:02:42.479Z,14.50
2019-03-25T23:05:44.762Z,14.44
2019-03-25T23:08:47.092Z,14.44
2019-03-25T23:11:49.343Z,14.38
2019-03-25T23:14:51.584Z,14.38
2019-03-25T23:17:53.878Z,14.31
2019-03-25T23:20:56.113Z,14.25
2019-03-25T23:23:58.365Z,14.25
2019-03-25T23:27:00.723Z,14.19
2019-03-25T23:30:03.088Z,14.13
2019-03-25T23:33:06.531Z,14.13
2019-03-25T23:36:08.907Z,14.06
2019-03-25T23:39:11.338Z,14.00
2019-03-25T23:42:13.689Z,14.00
2019-03-25T23:45:15.973Z,13.94
2019-03-25T23:48:18.267Z,13.94
2019-03-25T23:51:20.649Z,13.88
2019-03-25T23:54:22.913Z,13.81
2019-03-25T23:57:25.200Z,13.75
